sensor_id;sensor_type;location;lat;lon;timestamp;P1;durP1;ratioP1;P2;durP2;ratioP2
39982;SDS011;25670;44.782;10.356;2023-03-13T00:04:04;10.05;;;6.20;;
39982;SDS011;25670;44.782;10.356;2023-03-13T00:06:32;16.08;;;6.10;;
39982;SDS011;25670;44.782;10.356;2023-03-13T00:09:00;22.88;;;7.57;;
39982;SDS011;25670;44.782;10.356;2023-03-13T00:11:28;21.42;;;7.40;;
39982;SDS011;25670;44.782;10.356;2023-03-13T00:13:56;15.88;;;6.22;;
39982;SDS011;25670;44.782;10.356;2023-03-13T00:16:23;10.52;;;6.55;;
39982;SDS011;25670;44.782;10.356;2023-03-13T00:18:51;9.52;;;6.78;;
39982;SDS011;25670;44.782;10.356;2023-03-13T00:21:20;16.00;;;6.32;;
39982;SDS011;25670;44.782;10.356;2023-03-13T00:23:48;13.88;;;6.18;;
39982;SDS011;25670;44.782;10.356;2023-03-13T00:26:15;9.15;;;6.22;;
39982;SDS011;25670;44.782;10.356;2023-03-13T00:28:49;11.80;;;6.50;;
39982;SDS011;25670;44.782;10.356;2023-03-13T00:31:30;12.75;;;6.68;;
39982;SDS011;25670;44.782;10.356;2023-03-13T00:33:58;14.07;;;6.70;;
39982;SDS011;25670;44.782;10.356;2023-03-13T00:36:30;11.77;;;6.95;;
39982;SDS011;25670;44.782;10.356;2023-03-13T00:39:00;11.07;;;5.78;;
39982;SDS011;25670;44.782;10.356;2023-03-13T00:41:30;7.43;;;6.65;;
39982;SDS011;25670;44.782;10.356;2023-03-13T00:43:57;14.75;;;7.30;;
39982;SDS011;25670;44.782;10.356;2023-03-13T00:46:25;14.40;;;7.93;;
39982;SDS011;25670;44.782;10.356;2023-03-13T00:48:53;12.32;;;7.15;;
39982;SDS011;25670;44.782;10.356;2023-03-13T00:51:20;13.68;;;7.63;;
39982;SDS011;25670;44.782;10.356;2023-03-13T00:53:49;9.20;;;7.53;;
39982;SDS011;25670;44.782;10.356;2023-03-13T00:56:16;19.33;;;9.90;;
39982;SDS011;25670;44.782;10.356;2023-03-13T00:58:44;14.85;;;8.98;;
39982;SDS011;25670;44.782;10.356;2023-03-13T01:03:39;16.20;;;10.38;;
39982;SDS011;25670;44.782;10.356;2023-03-13T01:06:08;21.67;;;11.27;;
39982;SDS011;25670;44.782;10.356;2023-03-13T01:08:39;16.27;;;12.20;;
39982;SDS011;25670;44.782;10.356;2023-03-13T01:11:07;23.65;;;12.57;;
39982;SDS011;25670;44.782;10.356;2023-03-13T01:13:37;21.20;;;12.40;;
39982;SDS011;25670;44.782;10.356;2023-03-13T01:16:05;20.50;;;11.63;;
39982;SDS011;25670;44.782;10.356;2023-03-13T01:18:33;17.42;;;12.20;;
39982;SDS011;25670;44.782;10.356;2023-03-13T01:21:00;22.98;;;13.10;;
39982;SDS011;25670;44.782;10.356;2023-03-13T01:23:27;16.50;;;12.18;;
39982;SDS011;25670;44.782;10.356;2023-03-13T01:25:54;16.65;;;10.88;;
39982;SDS011;25670;44.782;10.356;2023-03-13T01:28:22;19.80;;;11.93;;
39982;SDS011;25670;44.782;10.356;2023-03-13T01:30:49;18.88;;;11.90;;
39982;SDS011;25670;44.782;10.356;2023-03-13T01:33:15;15.85;;;10.63;;
39982;SDS011;25670;44.782;10.356;2023-03-13T01:35:42;18.50;;;10.23;;
39982;SDS011;25670;44.782;10.356;2023-03-13T01:38:09;28.88;;;12.57;;
39982;SDS011;25670;44.782;10.356;2023-03-13T01:40:43;23.52;;;12.45;;
39982;SDS011;25670;44.782;10.356;2023-03-13T01:43:18;21.48;;;11.45;;
39982;SDS011;25670;44.782;10.356;2023-03-13T01:45:52;18.25;;;12.48;;
39982;SDS011;25670;44.782;10.356;2023-03-13T01:51:45;24.70;;;12.65;;
39982;SDS011;25670;44.782;10.356;2023-03-13T01:54:22;22.05;;;11.50;;
39982;SDS011;25670;44.782;10.356;2023-03-13T01:57:02;23.83;;;12.20;;
39982;SDS011;25670;44.782;10.356;2023-03-13T02:02:44;19.75;;;13.32;;
39982;SDS011;25670;44.782;10.356;2023-03-13T02:05:13;25.70;;;13.57;;
39982;SDS011;25670;44.782;10.356;2023-03-13T02:07:42;26.63;;;14.20;;
39982;SDS011;25670;44.782;10.356;2023-03-13T02:10:15;27.52;;;13.68;;
39982;SDS011;25670;44.782;10.356;2023-03-13T02:12:42;26.17;;;13.88;;
39982;SDS011;25670;44.782;10.356;2023-03-13T02:15:14;26.90;;;12.82;;
39982;SDS011;25670;44.782;10.356;2023-03-13T02:17:43;22.52;;;12.63;;
39982;SDS011;25670;44.782;10.356;2023-03-13T02:20:12;13.07;;;10.27;;
39982;SDS011;25670;44.782;10.356;2023-03-13T02:27:54;18.52;;;11.65;;
39982;SDS011;25670;44.782;10.356;2023-03-13T02:30:25;18.38;;;11.20;;
39982;SDS011;25670;44.782;10.356;2023-03-13T02:32:52;19.35;;;11.35;;
39982;SDS011;25670;44.782;10.356;2023-03-13T02:35:19;16.60;;;10.10;;
39982;SDS011;25670;44.782;10.356;2023-03-13T02:37:49;12.73;;;10.82;;
39982;SDS011;25670;44.782;10.356;2023-03-13T02:40:23;19.13;;;10.82;;
39982;SDS011;25670;44.782;10.356;2023-03-13T02:42:54;18.10;;;10.60;;
39982;SDS011;25670;44.782;10.356;2023-03-13T02:45:21;19.20;;;11.77;;
39982;SDS011;25670;44.782;10.356;2023-03-13T02:47:48;18.38;;;11.27;;
39982;SDS011;25670;44.782;10.356;2023-03-13T02:50:15;14.77;;;11.50;;
39982;SDS011;25670;44.782;10.356;2023-03-13T02:52:42;18.33;;;11.68;;
39982;SDS011;25670;44.782;10.356;2023-03-13T02:55:13;18.58;;;11.55;;
39982;SDS011;25670;44.782;10.356;2023-03-13T03:00:09;21.35;;;11.65;;
39982;SDS011;25670;44.782;10.356;2023-03-13T03:02:43;17.80;;;11.57;;
39982;SDS011;25670;44.782;10.356;2023-03-13T03:05:10;32.55;;;12.43;;
39982;SDS011;25670;44.782;10.356;2023-03-13T03:07:38;24.23;;;12.73;;
39982;SDS011;25670;44.782;10.356;2023-03-13T03:10:06;25.33;;;13.32;;
39982;SDS011;25670;44.782;10.356;2023-03-13T03:12:33;23.80;;;12.63;;
39982;SDS011;25670;44.782;10.356;2023-03-13T03:15:00;27.83;;;12.77;;
39982;SDS011;25670;44.782;10.356;2023-03-13T03:17:30;16.98;;;10.93;;
39982;SDS011;25670;44.782;10.356;2023-03-13T03:19:57;23.80;;;10.95;;
39982;SDS011;25670;44.782;10.356;2023-03-13T03:22:24;20.08;;;10.70;;
39982;SDS011;25670;44.782;10.356;2023-03-13T03:24:50;21.20;;;10.95;;
39982;SDS011;25670;44.782;10.356;2023-03-13T03:27:17;16.52;;;9.80;;
39982;SDS011;25670;44.782;10.356;2023-03-13T03:29:50;17.02;;;9.95;;
39982;SDS011;25670;44.782;10.356;2023-03-13T03:32:17;13.82;;;10.20;;
39982;SDS011;25670;44.782;10.356;2023-03-13T03:34:44;14.55;;;10.45;;
39982;SDS011;25670;44.782;10.356;2023-03-13T03:37:10;11.10;;;10.15;;
39982;SDS011;25670;44.782;10.356;2023-03-13T03:39:38;11.02;;;9.95;;
39982;SDS011;25670;44.782;10.356;2023-03-13T03:42:05;14.55;;;10.48;;
39982;SDS011;25670;44.782;10.356;2023-03-13T03:44:32;15.02;;;9.80;;
39982;SDS011;25670;44.782;10.356;2023-03-13T03:46:59;12.10;;;10.07;;
39982;SDS011;25670;44.782;10.356;2023-03-13T03:49:29;13.40;;;9.20;;
39982;SDS011;25670;44.782;10.356;2023-03-13T03:51:56;12.77;;;9.13;;
39982;SDS011;25670;44.782;10.356;2023-03-13T03:54:29;12.02;;;8.90;;
39982;SDS011;25670;44.782;10.356;2023-03-13T03:56:57;17.52;;;9.05;;
39982;SDS011;25670;44.782;10.356;2023-03-13T03:59:23;14.65;;;9.70;;
39982;SDS011;25670;44.782;10.356;2023-03-13T04:02:16;9.73;;;8.75;;
39982;SDS011;25670;44.782;10.356;2023-03-13T04:04:44;17.45;;;10.15;;
39982;SDS011;25670;44.782;10.356;2023-03-13T04:07:18;20.63;;;10.30;;
39982;SDS011;25670;44.782;10.356;2023-03-13T04:09:45;13.50;;;9.70;;
39982;SDS011;25670;44.782;10.356;2023-03-13T04:12:20;17.75;;;10.73;;
39982;SDS011;25670;44.782;10.356;2023-03-13T04:14:49;20.20;;;10.05;;
39982;SDS011;25670;44.782;10.356;2023-03-13T04:17:16;14.43;;;11.07;;
39982;SDS011;25670;44.782;10.356;2023-03-13T04:19:43;16.08;;;10.70;;
39982;SDS011;25670;44.782;10.356;2023-03-13T04:22:10;23.67;;;11.65;;
39982;SDS011;25670;44.782;10.356;2023-03-13T04:24:41;17.63;;;11.43;;
39982;SDS011;25670;44.782;10.356;2023-03-13T04:27:08;16.58;;;11.13;;
39982;SDS011;25670;44.782;10.356;2023-03-13T04:29:34;13.35;;;11.98;;
39982;SDS011;25670;44.782;10.356;2023-03-13T04:32:09;17.88;;;10.75;;
39982;SDS011;25670;44.782;10.356;2023-03-13T04:34:56;13.27;;;11.27;;
39982;SDS011;25670;44.782;10.356;2023-03-13T04:37:39;25.77;;;12.68;;
39982;SDS011;25670;44.782;10.356;2023-03-13T04:40:05;13.95;;;11.32;;
39982;SDS011;25670;44.782;10.356;2023-03-13T04:42:50;13.13;;;10.80;;
39982;SDS011;25670;44.782;10.356;2023-03-13T04:45:55;14.85;;;10.90;;
39982;SDS011;25670;44.782;10.356;2023-03-13T04:48:46;12.25;;;10.45;;
39982;SDS011;25670;44.782;10.356;2023-03-13T04:51:31;13.93;;;11.23;;
39982;SDS011;25670;44.782;10.356;2023-03-13T04:54:12;18.10;;;10.98;;
39982;SDS011;25670;44.782;10.356;2023-03-13T04:57:06;17.63;;;10.82;;
39982;SDS011;25670;44.782;10.356;2023-03-13T04:59:41;17.85;;;11.30;;
39982;SDS011;25670;44.782;10.356;2023-03-13T05:02:19;20.33;;;11.65;;
39982;SDS011;25670;44.782;10.356;2023-03-13T05:05:06;16.90;;;11.38;;
39982;SDS011;25670;44.782;10.356;2023-03-13T05:08:08;16.30;;;11.68;;
39982;SDS011;25670;44.782;10.356;2023-03-13T05:10:45;16.73;;;11.13;;
39982;SDS011;25670;44.782;10.356;2023-03-13T05:13:32;14.10;;;10.32;;
39982;SDS011;25670;44.782;10.356;2023-03-13T05:16:18;14.10;;;10.65;;
39982;SDS011;25670;44.782;10.356;2023-03-13T05:19:13;17.70;;;10.52;;
39982;SDS011;25670;44.782;10.356;2023-03-13T05:22:02;16.95;;;10.90;;
39982;SDS011;25670;44.782;10.356;2023-03-13T05:24:56;102.90;;;29.48;;
39982;SDS011;25670;44.782;10.356;2023-03-13T05:27:45;21.90;;;12.45;;
39982;SDS011;25670;44.782;10.356;2023-03-13T05:30:47;65.93;;;20.38;;
39982;SDS011;25670;44.782;10.356;2023-03-13T05:33:25;24.73;;;12.35;;
39982;SDS011;25670;44.782;10.356;2023-03-13T05:36:01;22.17;;;11.85;;
39982;SDS011;25670;44.782;10.356;2023-03-13T05:41:17;16.40;;;10.87;;
39982;SDS011;25670;44.782;10.356;2023-03-13T05:44:12;28.15;;;11.13;;
39982;SDS011;25670;44.782;10.356;2023-03-13T05:46:59;15.88;;;10.88;;
39982;SDS011;25670;44.782;10.356;2023-03-13T05:49:28;24.75;;;11.43;;
39982;SDS011;25670;44.782;10.356;2023-03-13T05:52:16;21.38;;;10.82;;
39982;SDS011;25670;44.782;10.356;2023-03-13T05:55:04;18.33;;;11.13;;
39982;SDS011;25670;44.782;10.356;2023-03-13T05:58:06;22.42;;;12.07;;
39982;SDS011;25670;44.782;10.356;2023-03-13T06:00:51;15.75;;;11.23;;
39982;SDS011;25670;44.782;10.356;2023-03-13T06:03:40;17.95;;;12.07;;
39982;SDS011;25670;44.782;10.356;2023-03-13T06:06:09;31.30;;;14.48;;
39982;SDS011;25670;44.782;10.356;2023-03-13T06:08:45;36.15;;;13.40;;
39982;SDS011;25670;44.782;10.356;2023-03-13T06:11:12;22.80;;;10.73;;
39982;SDS011;25670;44.782;10.356;2023-03-13T06:13:38;12.48;;;10.32;;
39982;SDS011;25670;44.782;10.356;2023-03-13T06:16:18;19.42;;;11.45;;
39982;SDS011;25670;44.782;10.356;2023-03-13T06:18:47;19.92;;;9.98;;
39982;SDS011;25670;44.782;10.356;2023-03-13T06:21:13;17.40;;;10.50;;
39982;SDS011;25670;44.782;10.356;2023-03-13T06:23:40;16.80;;;9.85;;
39982;SDS011;25670;44.782;10.356;2023-03-13T06:26:06;16.90;;;9.40;;
39982;SDS011;25670;44.782;10.356;2023-03-13T06:28:33;15.90;;;9.15;;
39982;SDS011;25670;44.782;10.356;2023-03-13T06:31:03;17.25;;;9.15;;
39982;SDS011;25670;44.782;10.356;2023-03-13T06:33:30;18.48;;;9.98;;
39982;SDS011;25670;44.782;10.356;2023-03-13T06:35:59;13.20;;;8.90;;
39982;SDS011;25670;44.782;10.356;2023-03-13T06:38:26;14.65;;;9.98;;
39982;SDS011;25670;44.782;10.356;2023-03-13T06:40:52;22.40;;;10.85;;
39982;SDS011;25670;44.782;10.356;2023-03-13T06:43:19;25.08;;;9.50;;
39982;SDS011;25670;44.782;10.356;2023-03-13T06:45:46;14.85;;;9.38;;
39982;SDS011;25670;44.782;10.356;2023-03-13T06:48:13;23.58;;;10.05;;
39982;SDS011;25670;44.782;10.356;2023-03-13T06:50:39;20.20;;;10.63;;
39982;SDS011;25670;44.782;10.356;2023-03-13T06:53:06;16.17;;;9.75;;
39982;SDS011;25670;44.782;10.356;2023-03-13T06:55:38;11.45;;;9.10;;
39982;SDS011;25670;44.782;10.356;2023-03-13T06:58:04;19.05;;;9.48;;
39982;SDS011;25670;44.782;10.356;2023-03-13T07:00:32;21.02;;;9.65;;
39982;SDS011;25670;44.782;10.356;2023-03-13T07:02:59;18.70;;;10.25;;
39982;SDS011;25670;44.782;10.356;2023-03-13T07:05:25;27.60;;;10.23;;
39982;SDS011;25670;44.782;10.356;2023-03-13T07:07:52;15.82;;;11.00;;
39982;SDS011;25670;44.782;10.356;2023-03-13T07:10:18;16.83;;;10.27;;
39982;SDS011;25670;44.782;10.356;2023-03-13T07:12:45;15.90;;;10.70;;
39982;SDS011;25670;44.782;10.356;2023-03-13T07:15:11;13.00;;;10.60;;
39982;SDS011;25670;44.782;10.356;2023-03-13T07:17:37;14.77;;;10.73;;
39982;SDS011;25670;44.782;10.356;2023-03-13T07:20:04;15.70;;;10.70;;
39982;SDS011;25670;44.782;10.356;2023-03-13T07:22:34;13.57;;;9.15;;
39982;SDS011;25670;44.782;10.356;2023-03-13T07:25:00;15.20;;;8.20;;
39982;SDS011;25670;44.782;10.356;2023-03-13T07:27:27;14.82;;;8.85;;
39982;SDS011;25670;44.782;10.356;2023-03-13T07:29:53;8.90;;;7.90;;
39982;SDS011;25670;44.782;10.356;2023-03-13T07:32:20;9.63;;;8.02;;
39982;SDS011;25670;44.782;10.356;2023-03-13T07:34:46;14.48;;;8.57;;
39982;SDS011;25670;44.782;10.356;2023-03-13T07:37:13;14.10;;;8.60;;
39982;SDS011;25670;44.782;10.356;2023-03-13T07:39:40;11.27;;;9.35;;
39982;SDS011;25670;44.782;10.356;2023-03-13T07:42:10;15.18;;;10.25;;
39982;SDS011;25670;44.782;10.356;2023-03-13T07:44:39;9.50;;;7.13;;
39982;SDS011;25670;44.782;10.356;2023-03-13T07:47:05;10.70;;;7.38;;
39982;SDS011;25670;44.782;10.356;2023-03-13T07:49:32;11.02;;;7.22;;
39982;SDS011;25670;44.782;10.356;2023-03-13T07:54:29;10.68;;;7.63;;
39982;SDS011;25670;44.782;10.356;2023-03-13T07:56:56;15.18;;;7.80;;
39982;SDS011;25670;44.782;10.356;2023-03-13T07:59:22;11.80;;;6.10;;
39982;SDS011;25670;44.782;10.356;2023-03-13T08:01:49;10.57;;;6.60;;
39982;SDS011;25670;44.782;10.356;2023-03-13T08:04:15;9.82;;;6.95;;
39982;SDS011;25670;44.782;10.356;2023-03-13T08:06:42;8.80;;;6.80;;
39982;SDS011;25670;44.782;10.356;2023-03-13T08:09:08;12.63;;;6.47;;
39982;SDS011;25670;44.782;10.356;2023-03-13T08:11:36;10.40;;;6.20;;
39982;SDS011;25670;44.782;10.356;2023-03-13T08:14:06;9.90;;;6.07;;
39982;SDS011;25670;44.782;10.356;2023-03-13T08:16:33;15.00;;;6.10;;
39982;SDS011;25670;44.782;10.356;2023-03-13T08:19:00;14.00;;;7.22;;
39982;SDS011;25670;44.782;10.356;2023-03-13T08:21:30;13.98;;;6.47;;
39982;SDS011;25670;44.782;10.356;2023-03-13T08:23:59;9.48;;;7.07;;
39982;SDS011;25670;44.782;10.356;2023-03-13T08:26:31;11.25;;;6.65;;
39982;SDS011;25670;44.782;10.356;2023-03-13T08:29:00;10.75;;;5.97;;
39982;SDS011;25670;44.782;10.356;2023-03-13T08:31:29;15.68;;;6.28;;
39982;SDS011;25670;44.782;10.356;2023-03-13T08:33:57;11.95;;;6.38;;
39982;SDS011;25670;44.782;10.356;2023-03-13T08:36:25;9.02;;;6.05;;
39982;SDS011;25670;44.782;10.356;2023-03-13T08:39:05;7.72;;;5.68;;
39982;SDS011;25670;44.782;10.356;2023-03-13T08:41:35;10.93;;;6.22;;
39982;SDS011;25670;44.782;10.356;2023-03-13T08:44:02;6.22;;;5.68;;
39982;SDS011;25670;44.782;10.356;2023-03-13T08:46:30;13.88;;;7.57;;
39982;SDS011;25670;44.782;10.356;2023-03-13T08:48:57;11.40;;;5.38;;
39982;SDS011;25670;44.782;10.356;2023-03-13T08:51:25;9.23;;;4.97;;
39982;SDS011;25670;44.782;10.356;2023-03-13T08:53:53;8.32;;;5.90;;
39982;SDS011;25670;44.782;10.356;2023-03-13T08:56:21;8.35;;;5.95;;
39982;SDS011;25670;44.782;10.356;2023-03-13T08:58:49;6.97;;;5.47;;
39982;SDS011;25670;44.782;10.356;2023-03-13T09:01:20;6.90;;;4.93;;
39982;SDS011;25670;44.782;10.356;2023-03-13T09:03:48;6.93;;;5.43;;
39982;SDS011;25670;44.782;10.356;2023-03-13T09:06:14;6.68;;;5.35;;
39982;SDS011;25670;44.782;10.356;2023-03-13T09:08:41;6.20;;;4.88;;
39982;SDS011;25670;44.782;10.356;2023-03-13T09:11:18;11.80;;;5.05;;
39982;SDS011;25670;44.782;10.356;2023-03-13T09:13:46;6.18;;;4.50;;
39982;SDS011;25670;44.782;10.356;2023-03-13T09:16:23;6.35;;;4.45;;
39982;SDS011;25670;44.782;10.356;2023-03-13T09:18:51;9.35;;;5.75;;
39982;SDS011;25670;44.782;10.356;2023-03-13T09:21:22;9.13;;;4.65;;
39982;SDS011;25670;44.782;10.356;2023-03-13T09:23:50;9.30;;;4.68;;
39982;SDS011;25670;44.782;10.356;2023-03-13T09:26:17;4.80;;;4.50;;
39982;SDS011;25670;44.782;10.356;2023-03-13T09:28:45;6.22;;;4.63;;
39982;SDS011;25670;44.782;10.356;2023-03-13T09:31:12;5.82;;;4.22;;
39982;SDS011;25670;44.782;10.356;2023-03-13T09:33:40;7.38;;;3.83;;
39982;SDS011;25670;44.782;10.356;2023-03-13T09:36:07;4.90;;;4.47;;
39982;SDS011;25670;44.782;10.356;2023-03-13T09:38:34;6.07;;;4.75;;
39982;SDS011;25670;44.782;10.356;2023-03-13T09:41:10;5.97;;;4.28;;
39982;SDS011;25670;44.782;10.356;2023-03-13T09:46:37;4.95;;;4.13;;
39982;SDS011;25670;44.782;10.356;2023-03-13T09:57:45;6.95;;;4.30;;
39982;SDS011;25670;44.782;10.356;2023-03-13T10:00:21;6.30;;;4.50;;
39982;SDS011;25670;44.782;10.356;2023-03-13T10:05:36;6.47;;;4.60;;
39982;SDS011;25670;44.782;10.356;2023-03-13T10:08:28;7.50;;;4.90;;
39982;SDS011;25670;44.782;10.356;2023-03-13T10:10:57;5.40;;;5.10;;
39982;SDS011;25670;44.782;10.356;2023-03-13T10:16:37;10.15;;;5.50;;
39982;SDS011;25670;44.782;10.356;2023-03-13T10:19:30;5.72;;;5.25;;
39982;SDS011;25670;44.782;10.356;2023-03-13T10:22:03;7.07;;;5.75;;
39982;SDS011;25670;44.782;10.356;2023-03-13T10:27:14;9.13;;;6.40;;
39982;SDS011;25670;44.782;10.356;2023-03-13T10:29:41;7.28;;;6.53;;
39982;SDS011;25670;44.782;10.356;2023-03-13T10:32:08;7.28;;;6.55;;
39982;SDS011;25670;44.782;10.356;2023-03-13T10:39:50;7.80;;;6.28;;
39982;SDS011;25670;44.782;10.356;2023-03-13T10:42:20;8.02;;;5.75;;
39982;SDS011;25670;44.782;10.356;2023-03-13T10:44:55;6.57;;;5.88;;
39982;SDS011;25670;44.782;10.356;2023-03-13T10:47:24;7.45;;;6.20;;
39982;SDS011;25670;44.782;10.356;2023-03-13T10:49:51;7.50;;;5.57;;
39982;SDS011;25670;44.782;10.356;2023-03-13T10:52:28;7.40;;;5.70;;
39982;SDS011;25670;44.782;10.356;2023-03-13T10:55:01;6.32;;;5.70;;
39982;SDS011;25670;44.782;10.356;2023-03-13T10:57:31;8.65;;;5.95;;
39982;SDS011;25670;44.782;10.356;2023-03-13T11:02:51;12.73;;;5.95;;
39982;SDS011;25670;44.782;10.356;2023-03-13T11:07:55;6.07;;;5.30;;
39982;SDS011;25670;44.782;10.356;2023-03-13T11:13:02;7.32;;;6.00;;
39982;SDS011;25670;44.782;10.356;2023-03-13T11:15:34;9.55;;;5.28;;
39982;SDS011;25670;44.782;10.356;2023-03-13T11:18:27;6.50;;;5.90;;
39982;SDS011;25670;44.782;10.356;2023-03-13T11:21:02;11.82;;;5.50;;
39982;SDS011;25670;44.782;10.356;2023-03-13T11:23:35;9.68;;;6.45;;
39982;SDS011;25670;44.782;10.356;2023-03-13T11:29:38;6.35;;;5.90;;
39982;SDS011;25670;44.782;10.356;2023-03-13T11:31:46;6.65;;;5.97;;
39982;SDS011;25670;44.782;10.356;2023-03-13T11:37:08;7.03;;;5.95;;
39982;SDS011;25670;44.782;10.356;2023-03-13T11:58:04;9.18;;;6.47;;
39982;SDS011;25670;44.782;10.356;2023-03-13T12:00:49;7.07;;;6.47;;
39982;SDS011;25670;44.782;10.356;2023-03-13T12:05:56;9.88;;;7.25;;
39982;SDS011;25670;44.782;10.356;2023-03-13T12:08:43;7.43;;;6.07;;
39982;SDS011;25670;44.782;10.356;2023-03-13T12:16:51;7.07;;;6.15;;
39982;SDS011;25670;44.782;10.356;2023-03-13T12:19:36;6.85;;;5.78;;
39982;SDS011;25670;44.782;10.356;2023-03-13T12:22:31;9.35;;;6.75;;
39982;SDS011;25670;44.782;10.356;2023-03-13T12:27:51;6.65;;;5.18;;
39982;SDS011;25670;44.782;10.356;2023-03-13T12:30:39;8.02;;;6.47;;
39982;SDS011;25670;44.782;10.356;2023-03-13T12:33:20;7.38;;;6.65;;
39982;SDS011;25670;44.782;10.356;2023-03-13T12:36:12;6.88;;;6.10;;
39982;SDS011;25670;44.782;10.356;2023-03-13T12:39:09;6.82;;;6.25;;
39982;SDS011;25670;44.782;10.356;2023-03-13T12:42:09;11.63;;;6.65;;
39982;SDS011;25670;44.782;10.356;2023-03-13T12:44:38;8.02;;;6.35;;
39982;SDS011;25670;44.782;10.356;2023-03-13T13:00:35;9.38;;;6.95;;
39982;SDS011;25670;44.782;10.356;2023-03-13T13:05:32;7.28;;;6.57;;
39982;SDS011;25670;44.782;10.356;2023-03-13T13:07:59;9.63;;;7.03;;
39982;SDS011;25670;44.782;10.356;2023-03-13T13:10:25;7.80;;;6.63;;
39982;SDS011;25670;44.782;10.356;2023-03-13T13:16:00;7.88;;;6.05;;
39982;SDS011;25670;44.782;10.356;2023-03-13T13:18:32;10.57;;;6.50;;
39982;SDS011;25670;44.782;10.356;2023-03-13T13:28:52;7.25;;;6.70;;
39982;SDS011;25670;44.782;10.356;2023-03-13T13:36:55;10.27;;;6.68;;
39982;SDS011;25670;44.782;10.356;2023-03-13T13:39:29;10.43;;;6.78;;
39982;SDS011;25670;44.782;10.356;2023-03-13T13:41:57;10.02;;;7.38;;
39982;SDS011;25670;44.782;10.356;2023-03-13T13:44:25;14.65;;;6.93;;
39982;SDS011;25670;44.782;10.356;2023-03-13T13:46:54;8.30;;;6.00;;
39982;SDS011;25670;44.782;10.356;2023-03-13T13:49:33;8.40;;;6.30;;
39982;SDS011;25670;44.782;10.356;2023-03-13T13:57:20;12.15;;;5.97;;
39982;SDS011;25670;44.782;10.356;2023-03-13T14:02:35;6.70;;;6.07;;
39982;SDS011;25670;44.782;10.356;2023-03-13T14:05:24;6.70;;;6.05;;
39982;SDS011;25670;44.782;10.356;2023-03-13T14:07:56;10.43;;;6.35;;
39982;SDS011;25670;44.782;10.356;2023-03-13T14:13:11;7.28;;;6.45;;
39982;SDS011;25670;44.782;10.356;2023-03-13T14:15:40;6.95;;;6.25;;
39982;SDS011;25670;44.782;10.356;2023-03-13T14:18:27;14.38;;;6.05;;
39982;SDS011;25670;44.782;10.356;2023-03-13T14:20:59;6.57;;;5.45;;
39982;SDS011;25670;44.782;10.356;2023-03-13T14:23:39;6.45;;;5.50;;
39982;SDS011;25670;44.782;10.356;2023-03-13T14:26:08;7.25;;;6.38;;
39982;SDS011;25670;44.782;10.356;2023-03-13T14:28:55;12.20;;;6.65;;
39982;SDS011;25670;44.782;10.356;2023-03-13T14:31:28;10.65;;;6.65;;
39982;SDS011;25670;44.782;10.356;2023-03-13T14:34:02;6.95;;;5.63;;
39982;SDS011;25670;44.782;10.356;2023-03-13T14:36:44;6.78;;;5.18;;
39982;SDS011;25670;44.782;10.356;2023-03-13T14:39:18;5.90;;;5.32;;
39982;SDS011;25670;44.782;10.356;2023-03-13T14:42:08;8.23;;;5.80;;
39982;SDS011;25670;44.782;10.356;2023-03-13T14:44:37;8.80;;;5.90;;
39982;SDS011;25670;44.782;10.356;2023-03-13T14:47:06;10.57;;;6.50;;
39982;SDS011;25670;44.782;10.356;2023-03-13T14:49:43;7.15;;;6.53;;
39982;SDS011;25670;44.782;10.356;2023-03-13T14:52:16;7.25;;;6.63;;
39982;SDS011;25670;44.782;10.356;2023-03-13T14:54:51;14.32;;;6.57;;
39982;SDS011;25670;44.782;10.356;2023-03-13T14:57:25;11.80;;;7.38;;
39982;SDS011;25670;44.782;10.356;2023-03-13T14:59:53;7.50;;;6.53;;
39982;SDS011;25670;44.782;10.356;2023-03-13T15:04:50;9.68;;;6.18;;
39982;SDS011;25670;44.782;10.356;2023-03-13T15:07:17;17.15;;;8.30;;
39982;SDS011;25670;44.782;10.356;2023-03-13T15:09:44;6.35;;;5.72;;
39982;SDS011;25670;44.782;10.356;2023-03-13T15:12:13;14.85;;;6.60;;
39982;SDS011;25670;44.782;10.356;2023-03-13T15:14:42;6.68;;;5.93;;
39982;SDS011;25670;44.782;10.356;2023-03-13T15:17:20;7.18;;;6.13;;
39982;SDS011;25670;44.782;10.356;2023-03-13T15:19:48;6.65;;;5.50;;
39982;SDS011;25670;44.782;10.356;2023-03-13T15:22:24;7.47;;;6.60;;
39982;SDS011;25670;44.782;10.356;2023-03-13T15:24:53;10.27;;;6.05;;
39982;SDS011;25670;44.782;10.356;2023-03-13T15:27:21;10.15;;;6.85;;
39982;SDS011;25670;44.782;10.356;2023-03-13T15:29:48;11.00;;;6.85;;
39982;SDS011;25670;44.782;10.356;2023-03-13T15:32:23;8.00;;;6.90;;
39982;SDS011;25670;44.782;10.356;2023-03-13T15:34:51;11.15;;;6.47;;
39982;SDS011;25670;44.782;10.356;2023-03-13T15:37:17;11.25;;;5.88;;
39982;SDS011;25670;44.782;10.356;2023-03-13T15:39:44;11.85;;;5.90;;
39982;SDS011;25670;44.782;10.356;2023-03-13T15:42:10;7.80;;;6.18;;
39982;SDS011;25670;44.782;10.356;2023-03-13T15:44:36;7.47;;;6.03;;
39982;SDS011;25670;44.782;10.356;2023-03-13T15:47:03;8.90;;;7.10;;
39982;SDS011;25670;44.782;10.356;2023-03-13T15:49:29;11.70;;;6.95;;
39982;SDS011;25670;44.782;10.356;2023-03-13T15:51:56;12.60;;;8.38;;
39982;SDS011;25670;44.782;10.356;2023-03-13T15:54:23;8.15;;;7.45;;
39982;SDS011;25670;44.782;10.356;2023-03-13T15:56:50;7.43;;;6.75;;
39982;SDS011;25670;44.782;10.356;2023-03-13T15:59:17;8.80;;;6.97;;
39982;SDS011;25670;44.782;10.356;2023-03-13T16:01:43;12.50;;;7.03;;
39982;SDS011;25670;44.782;10.356;2023-03-13T16:04:10;8.27;;;6.05;;
39982;SDS011;25670;44.782;10.356;2023-03-13T16:06:36;7.55;;;6.93;;
39982;SDS011;25670;44.782;10.356;2023-03-13T16:09:04;7.50;;;6.65;;
39982;SDS011;25670;44.782;10.356;2023-03-13T16:11:31;8.35;;;7.53;;
39982;SDS011;25670;44.782;10.356;2023-03-13T16:13:58;8.30;;;7.60;;
39982;SDS011;25670;44.782;10.356;2023-03-13T16:16:29;11.00;;;8.00;;
39982;SDS011;25670;44.782;10.356;2023-03-13T16:18:58;14.00;;;8.40;;
39982;SDS011;25670;44.782;10.356;2023-03-13T16:21:26;12.30;;;8.07;;
39982;SDS011;25670;44.782;10.356;2023-03-13T16:23:54;9.35;;;8.43;;
39982;SDS011;25670;44.782;10.356;2023-03-13T16:26:23;10.93;;;7.90;;
39982;SDS011;25670;44.782;10.356;2023-03-13T16:28:51;9.60;;;8.18;;
39982;SDS011;25670;44.782;10.356;2023-03-13T16:31:23;14.82;;;8.27;;
39982;SDS011;25670;44.782;10.356;2023-03-13T16:33:52;8.88;;;8.15;;
39982;SDS011;25670;44.782;10.356;2023-03-13T16:36:21;20.00;;;8.98;;
39982;SDS011;25670;44.782;10.356;2023-03-13T16:38:49;13.43;;;8.77;;
39982;SDS011;25670;44.782;10.356;2023-03-13T16:41:16;9.90;;;9.02;;
39982;SDS011;25670;44.782;10.356;2023-03-13T16:43:45;15.40;;;8.30;;
39982;SDS011;25670;44.782;10.356;2023-03-13T16:46:19;9.07;;;8.15;;
39982;SDS011;25670;44.782;10.356;2023-03-13T16:48:49;17.75;;;9.63;;
39982;SDS011;25670;44.782;10.356;2023-03-13T16:51:17;10.02;;;8.45;;
39982;SDS011;25670;44.782;10.356;2023-03-13T16:53:49;19.35;;;9.15;;
39982;SDS011;25670;44.782;10.356;2023-03-13T16:56:30;16.52;;;9.20;;
39982;SDS011;25670;44.782;10.356;2023-03-13T16:59:02;10.23;;;9.23;;
39982;SDS011;25670;44.782;10.356;2023-03-13T17:01:30;14.88;;;9.77;;
39982;SDS011;25670;44.782;10.356;2023-03-13T17:03:56;17.60;;;8.77;;
39982;SDS011;25670;44.782;10.356;2023-03-13T17:06:25;14.13;;;9.93;;